Time;durP1;ratioP1;P1;durP2;ratioP2;P2;SDS_P1;SDS_P2;PMS_P1;PMS_P2;Temp;Humidity;BMP_temperature;BMP_pressure;BME280_temperature;BME280_humidity;BME280_pressure;Samples;Min_cycle;Max_cycle;Signal;HPM_P1;HPM_P2
2022/07/05 00:01:20;;;;;;;10.78;9.15;;;;;;;18.92;78.94;100777.52;1723930;83;25754;-81
2022/07/05 00:03:46;;;;;;;14.60;9.85;;;;;;;18.88;79.11;100780.94;1723401;83;28211;-80
2022/07/05 00:06:12;;;;;;;9.93;8.98;;;;;;;18.84;79.44;100777.05;1722800;81;25363;-81
2022/07/05 00:08:39;;;;;;;11.50;10.35;;;;;;;18.81;79.53;100773.44;1723455;83;25836;-81
2022/07/05 00:11:05;;;;;;;10.25;9.30;;;;;;;18.77;79.54;100773.63;1723910;83;25837;-81
2022/07/05 00:13:32;;;;;;;10.88;9.88;;;;;;;18.76;79.90;100774.14;1723340;83;25936;-81
2022/07/05 00:15:58;;;;;;;10.78;9.80;;;;;;;18.69;79.52;100772.06;1723326;81;27666;-81
2022/07/05 00:18:24;;;;;;;10.82;9.75;;;;;;;18.62;79.78;100775.45;1723514;83;26353;-81
2022/07/05 00:20:51;;;;;;;11.68;9.50;;;;;;;18.59;80.03;100779.97;1723886;83;25289;-81
2022/07/05 00:23:17;;;;;;;10.93;9.88;;;;;;;18.57;80.37;100783.45;1723221;83;26425;-81
2022/07/05 00:25:43;;;;;;;10.10;9.10;;;;;;;18.49;81.01;100778.38;1723718;81;25320;-81
2022/07/05 00:28:10;;;;;;;10.32;9.33;;;;;;;18.38;81.67;100779.15;1723681;83;27437;-81
2022/07/05 00:30:37;;;;;;;9.40;8.60;;;;;;;18.32;82.42;100783.63;1723729;83;25681;-81
2022/07/05 00:33:03;;;;;;;12.47;9.23;;;;;;;18.27;82.81;100787.56;1723649;83;26427;-80
2022/07/05 00:35:30;;;;;;;10.18;9.25;;;;;;;18.24;83.20;100799.41;1723369;81;26620;-81
2022/07/05 00:37:56;;;;;;;10.08;9.05;;;;;;;18.23;83.67;100804.00;1723426;83;25302;-81
2022/07/05 00:40:23;;;;;;;10.23;9.13;;;;;;;18.22;83.93;100802.33;1723873;83;28314;-81
2022/07/05 00:42:49;;;;;;;8.93;8.23;;;;;;;18.25;84.26;100807.83;1722840;83;26088;-81
2022/07/05 00:45:15;;;;;;;9.48;8.55;;;;;;;18.30;84.56;100812.87;1723785;81;25684;-81
2022/07/05 00:47:42;;;;;;;9.50;8.55;;;;;;;18.31;84.77;100816.39;1723755;83;25824;-81
2022/07/05 00:50:10;;;;;;;9.85;8.88;;;;;;;18.33;84.97;100818.33;1719543;83;25813;-81
2022/07/05 00:52:36;;;;;;;9.15;8.35;;;;;;;18.36;84.87;100813.81;1723828;83;27445;-81
2022/07/05 00:55:03;;;;;;;8.65;7.83;;;;;;;18.37;85.41;100824.42;1723824;81;26074;-81
2022/07/05 00:57:33;;;;;;;11.15;8.28;;;;;;;18.34;85.64;100824.07;1724126;83;25852;-81
2022/07/05 00:59:59;;;;;;;10.70;7.92;;;;;;;18.33;85.77;100827.30;1720473;83;26356;-80
2022/07/05 01:02:25;;;;;;;8.45;7.75;;;;;;;18.32;86.01;100835.16;1723795;83;25256;-81
2022/07/05 01:04:52;;;;;;;9.83;8.83;;;;;;;18.32;86.02;100834.33;1723904;81;27453;-81
2022/07/05 01:07:22;;;;;;;8.33;7.53;;;;;;;18.30;86.68;100832.38;1724052;83;25881;-81
2022/07/05 01:09:49;;;;;;;8.45;7.62;;;;;;;18.27;86.94;100826.05;1723358;83;33706;-80
2022/07/05 01:12:17;;;;;;;10.80;8.43;;;;;;;18.27;86.67;100827.40;1723815;83;25863;-81
2022/07/05 01:14:44;;;;;;;7.10;6.37;;;;;;;18.28;87.18;100820.38;1723847;81;25761;-81
2022/07/05 01:17:11;;;;;;;8.13;7.33;;;;;;;18.27;86.97;100817.91;1724156;83;28222;-81
2022/07/05 01:19:38;;;;;;;7.47;6.78;;;;;;;18.26;87.31;100821.14;1723780;83;25707;-81
2022/07/05 01:22:10;;;;;;;7.72;6.40;;;;;;;18.22;87.43;100825.38;1724122;83;25283;-81
2022/07/05 01:24:37;;;;;;;7.28;6.65;;;;;;;18.20;87.72;100830.73;1723304;81;25795;-82
2022/07/05 01:27:05;;;;;;;8.23;6.75;;;;;;;18.18;87.33;100825.55;1724283;83;25929;-82
2022/07/05 01:29:32;;;;;;;7.15;6.45;;;;;;;18.19;87.53;100821.80;1723643;83;26895;-81
2022/07/05 01:31:58;;;;;;;7.72;6.90;;;;;;;18.19;87.28;100823.67;1723739;83;25874;-81
2022/07/05 01:34:25;;;;;;;8.43;6.70;;;;;;;18.17;88.02;100827.14;1723844;81;25245;-81
2022/07/05 01:36:51;;;;;;;8.53;5.83;;;;;;;18.14;88.42;100835.72;1723808;83;26481;-81
2022/07/05 01:39:18;;;;;;;9.63;6.62;;;;;;;18.12;87.78;100826.47;1723396;83;25923;-81
2022/07/05 01:41:47;;;;;;;6.97;6.28;;;;;;;18.11;88.13;100828.88;1723787;83;27425;-82
2022/07/05 01:44:13;;;;;;;6.80;6.10;;;;;;;18.10;87.96;100833.17;1719825;83;25907;-81
2022/07/05 01:46:40;;;;;;;8.40;6.42;;;;;;;18.08;87.95;100833.94;1723614;81;25788;-81
2022/07/05 01:49:11;;;;;;;7.47;5.50;;;;;;;18.08;88.22;100831.23;1723802;83;26579;-81
2022/07/05 01:51:52;;;;;;;7.58;5.75;;;;;;;18.07;88.08;100827.69;1723700;82;26131;-82
2022/07/05 01:54:19;;;;;;;;;;;;;;;18.06;88.31;100840.13;1723574;83;28284;-81
2022/07/05 01:56:45;;;;;;;5.80;5.30;;;;;;;18.02;88.35;100834.86;1701280;83;25890;-81
2022/07/05 01:59:12;;;;;;;6.40;5.80;;;;;;;17.97;88.18;100846.39;1723716;83;25800;-81
2022/07/05 02:01:40;;;;;;;6.80;5.60;;;;;;;17.97;88.16;100844.20;1723526;83;26588;-81
2022/07/05 02:04:09;;;;;;;8.78;4.75;;;;;;;17.97;88.28;100846.91;1723997;83;25932;-81
2022/07/05 02:06:36;;;;;;;7.40;5.87;;;;;;;17.94;88.13;100840.61;1723834;81;27436;-81
2022/07/05 02:09:07;;;;;;;5.60;4.90;;;;;;;17.95;88.22;100845.80;1724116;83;26023;-81
2022/07/05 02:11:34;;;;;;;6.80;4.92;;;;;;;17.93;88.08;100842.48;1724266;83;25934;-82
2022/07/05 02:14:01;;;;;;;5.65;5.15;;;;;;;17.93;88.13;100849.26;1723798;83;25933;-82
2022/07/05 02:16:30;;;;;;;7.03;4.75;;;;;;;17.94;87.93;100851.45;1723241;81;26198;-81
2022/07/05 02:18:56;;;;;;;5.80;5.30;;;;;;;17.96;88.00;100851.52;1723693;83;27440;-82
2022/07/05 02:21:24;;;;;;;5.35;4.85;;;;;;;17.96;87.61;100847.46;1724092;83;25809;-81
2022/07/05 02:23:52;;;;;;;6.92;4.72;;;;;;;17.95;87.42;100847.14;1700629;83;25745;-81
2022/07/05 02:26:20;;;;;;;6.28;4.97;;;;;;;17.93;87.30;100846.55;1678118;83;25824;-81
2022/07/05 02:28:48;;;;;;;5.55;4.90;;;;;;;17.92;87.08;100850.30;1723984;83;25299;-81
2022/07/05 02:31:16;;;;;;;5.90;5.08;;;;;;;17.91;87.13;100860.02;1724356;83;27408;-82
2022/07/05 02:33:43;;;;;;;5.53;5.03;;;;;;;17.92;86.96;100860.34;1701226;83;25360;-81
2022/07/05 02:36:12;;;;;;;6.45;4.90;;;;;;;17.94;86.83;100859.58;1723582;81;25792;-81
2022/07/05 02:38:40;;;;;;;6.92;4.67;;;;;;;18.00;86.76;100861.38;1723986;83;25813;-81
2022/07/05 02:41:10;;;;;;;6.40;4.17;;;;;;;18.00;86.44;100862.20;1701740;83;25861;-81
2022/07/05 02:43:38;;;;;;;5.30;4.30;;;;;;;17.96;86.24;100861.53;1724117;83;28285;-81
2022/07/05 02:46:08;;;;;;;5.60;4.17;;;;;;;17.92;86.28;100858.98;1723672;81;25915;-81
2022/07/05 02:48:37;;;;;;;4.28;3.87;;;;;;;17.90;86.23;100859.74;1724188;83;25846;-81
2022/07/05 02:51:05;;;;;;;4.67;4.15;;;;;;;17.87;86.12;100866.44;1720771;83;25781;-81
2022/07/05 02:53:34;;;;;;;4.78;4.15;;;;;;;17.85;86.10;100863.66;1723750;83;25849;-82
2022/07/05 02:56:01;;;;;;;5.40;3.77;;;;;;;17.86;86.20;100868.00;1724242;81;28331;-81
2022/07/05 02:58:28;;;;;;;4.67;4.28;;;;;;;17.87;86.03;100870.50;1724079;83;25915;-81
2022/07/05 03:00:55;;;;;;;6.92;4.40;;;;;;;17.86;85.88;100874.25;1699543;83;25814;-81
2022/07/05 03:03:23;;;;;;;5.65;4.20;;;;;;;17.87;85.70;100879.98;1723281;83;25787;-81
2022/07/05 03:05:50;;;;;;;9.55;4.25;;;;;;;17.89;85.66;100884.66;1700942;83;25363;-81
2022/07/05 03:08:17;;;;;;;4.75;4.35;;;;;;;17.90;85.40;100883.58;1725160;81;27446;-81
2022/07/05 03:10:43;;;;;;;4.95;3.90;;;;;;;17.92;85.40;100876.60;1722144;81;25694;-81
2022/07/05 03:13:10;;;;;;;6.15;3.85;;;;;;;17.93;85.19;100879.07;1723998;82;25773;-81
2022/07/05 03:15:37;;;;;;;5.75;4.50;;;;;;;17.96;85.19;100882.70;1724053;81;25754;-81
2022/07/05 03:18:04;;;;;;;4.67;3.85;;;;;;;17.97;85.22;100876.20;1719444;83;25777;-81
2022/07/05 03:20:31;;;;;;;6.08;3.92;;;;;;;17.98;85.01;100880.58;1721657;82;28363;-81
2022/07/05 03:22:58;;;;;;;5.75;4.00;;;;;;;17.99;84.82;100880.03;1724466;82;25741;-81
2022/07/05 03:25:26;;;;;;;6.00;3.87;;;;;;;17.99;84.75;100875.45;1723158;81;25754;-82
2022/07/05 03:27:53;;;;;;;6.25;4.75;;;;;;;18.01;84.74;100883.34;1723905;83;25783;-80
2022/07/05 03:30:20;;;;;;;6.30;3.98;;;;;;;18.01;84.60;100882.81;1701090;83;25902;-81
2022/07/05 03:32:46;;;;;;;5.58;4.30;;;;;;;18.03;84.59;100886.65;1723819;83;27431;-81
2022/07/05 03:35:13;;;;;;;5.50;3.87;;;;;;;18.03;84.56;100889.36;1725211;81;25920;-81
2022/07/05 03:37:39;;;;;;;4.08;3.62;;;;;;;18.04;84.37;100890.51;1699479;83;25729;-81
2022/07/05 03:40:07;;;;;;;4.83;3.77;;;;;;;18.02;84.07;100889.91;1722265;81;25925;-81
2022/07/05 03:42:35;;;;;;;4.33;3.67;;;;;;;18.02;84.13;100898.05;1723864;82;25825;-80
2022/07/05 03:45:03;;;;;;;5.30;4.47;;;;;;;18.03;84.23;100896.97;1722609;81;27502;-81
2022/07/05 03:47:30;;;;;;;5.83;3.80;;;;;;;18.08;84.12;100901.71;1722657;83;25856;-81
2022/07/05 03:49:57;;;;;;;4.53;3.70;;;;;;;18.11;84.08;100895.84;1722016;83;25915;-81
2022/07/05 03:52:24;;;;;;;4.08;3.75;;;;;;;18.13;83.72;100897.28;1721395;83;25913;-81
2022/07/05 03:54:51;;;;;;;4.40;3.77;;;;;;;18.17;83.74;100901.19;1722175;81;25799;-81
2022/07/05 03:57:19;;;;;;;5.45;3.80;;;;;;;18.22;83.56;100907.28;1722594;81;27421;-81
2022/07/05 03:59:45;;;;;;;6.35;3.87;;;;;;;18.24;83.44;100902.45;1727654;82;26568;-81
2022/07/05 04:02:12;;;;;;;3.80;3.50;;;;;;;18.27;83.37;100909.59;1723543;83;25836;-81
2022/07/05 04:04:39;;;;;;;9.98;3.70;;;;;;;18.27;82.71;100908.23;1723611;81;26562;-80
2022/07/05 04:07:06;;;;;;;7.15;3.50;;;;;;;18.29;82.69;100914.25;1720417;83;25851;-80
2022/07/05 04:09:33;;;;;;;3.83;3.40;;;;;;;18.33;82.80;100906.47;1717011;83;28327;-81
2022/07/05 04:12:00;;;;;;;5.25;3.45;;;;;;;18.34;82.56;100915.76;1723623;83;25819;-81
2022/07/05 04:14:28;;;;;;;4.55;2.85;;;;;;;18.34;82.65;100914.41;1698012;81;25840;-81
2022/07/05 04:16:55;;;;;;;3.95;3.42;;;;;;;18.38;82.36;100918.31;1721305;83;25721;-81
2022/07/05 04:19:21;;;;;;;4.00;3.45;;;;;;;18.41;82.10;100915.12;1722308;81;25324;-81
2022/07/05 04:21:48;;;;;;;3.65;3.20;;;;;;;18.43;81.86;100919.78;1723067;83;27458;-81
2022/07/05 04:24:14;;;;;;;4.53;3.10;;;;;;;18.48;81.76;100921.84;1721539;83;25892;-81
2022/07/05 04:26:41;;;;;;;4.17;3.37;;;;;;;18.55;81.42;100922.58;1700183;83;25868;-81
2022/07/05 04:29:07;;;;;;;7.28;2.90;;;;;;;18.60;81.09;100917.30;1720701;83;26068;-81
2022/07/05 04:31:36;;;;;;;3.87;2.77;;;;;;;18.64;80.96;100907.64;1723595;83;25985;-81
2022/07/05 04:34:03;;;;;;;5.00;3.40;;;;;;;18.70;80.91;100914.01;1723620;83;27517;-81
2022/07/05 04:36:31;;;;;;;6.00;3.02;;;;;;;18.73;80.35;100905.41;1723695;81;26254;-81
2022/07/05 04:38:58;;;;;;;4.15;2.90;;;;;;;18.77;80.70;100903.89;1723012;83;25288;-81
2022/07/05 04:41:26;;;;;;;4.62;3.08;;;;;;;18.79;80.85;100903.12;1722814;83;25749;-81
2022/07/05 04:43:52;;;;;;;4.08;3.35;;;;;;;18.82;80.71;100899.41;1723503;83;26063;-81
2022/07/05 04:46:19;;;;;;;4.83;2.92;;;;;;;18.88;80.80;100896.30;1723675;81;27432;-80
2022/07/05 04:48:45;;;;;;;3.52;2.72;;;;;;;18.91;80.17;100904.80;1724261;83;25998;-81
2022/07/05 04:51:12;;;;;;;3.25;2.95;;;;;;;18.95;80.24;100899.19;1724340;83;26236;-81
2022/07/05 04:53:42;;;;;;;8.30;3.15;;;;;;;18.99;80.31;100899.57;1723547;83;25797;-81
2022/07/05 04:56:08;;;;;;;4.35;2.83;;;;;;;19.02;79.96;100899.08;1723702;81;25756;-81
2022/07/05 04:58:35;;;;;;;3.02;2.70;;;;;;;19.01;79.92;100896.89;1723750;83;27506;-81
2022/07/05 05:01:01;;;;;;;3.08;2.72;;;;;;;19.03;79.81;100900.75;1724232;83;25326;-80
2022/07/05 05:03:27;;;;;;;4.03;3.02;;;;;;;19.07;79.55;100900.58;1724045;83;25740;-81
2022/07/05 05:05:53;;;;;;;8.63;3.45;;;;;;;19.10;79.72;100898.73;1723653;81;25758;-80
2022/07/05 05:08:20;;;;;;;4.20;2.70;;;;;;;19.14;79.34;100900.74;1724165;81;25794;-80
2022/07/05 05:10:46;;;;;;;3.02;2.83;;;;;;;19.22;79.10;100899.02;1723795;83;28246;-80
2022/07/05 05:13:12;;;;;;;5.80;2.62;;;;;;;19.28;79.17;100892.36;1723010;83;25301;-81
2022/07/05 05:15:38;;;;;;;3.65;2.50;;;;;;;19.35;78.93;100889.88;1723702;81;25350;-81
2022/07/05 05:18:05;;;;;;;4.40;2.70;;;;;;;19.41;78.65;100888.92;1723882;83;26536;-81
2022/07/05 05:20:31;;;;;;;3.47;2.83;;;;;;;19.50;78.54;100887.50;1724127;83;25818;-81
2022/07/05 05:22:57;;;;;;;2.77;2.50;;;;;;;19.59;78.42;100887.41;1723348;83;27447;-81
2022/07/05 05:25:24;;;;;;;5.25;2.87;;;;;;;19.69;77.60;100890.89;1723477;81;26599;-81
2022/07/05 05:27:50;;;;;;;4.22;2.27;;;;;;;19.77;77.92;100893.23;1723732;83;25297;-81
2022/07/05 05:30:18;;;;;;;2.98;2.17;;;;;;;19.82;76.76;100898.78;1724277;83;25850;-80
2022/07/05 05:32:45;;;;;;;3.15;2.27;;;;;;;19.86;76.52;100902.67;1723681;83;25338;-80
2022/07/05 05:35:12;;;;;;;2.17;1.98;;;;;;;19.90;75.11;100899.77;1723930;81;27450;-81
2022/07/05 05:37:51;;;;;;;3.05;2.00;;;;;;;19.91;74.39;100908.20;1723733;83;25929;-81
2022/07/05 05:40:18;;;;;;;2.45;1.82;;;;;;;19.94;73.63;100905.02;1723295;80;25715;-81
2022/07/05 05:42:45;;;;;;;2.58;1.70;;;;;;;19.97;72.87;100898.55;1722858;83;25914;-81
2022/07/05 05:45:12;;;;;;;5.90;1.55;;;;;;;20.04;72.99;100904.41;1724001;81;26219;-81
2022/07/05 05:47:49;;;;;;;2.67;2.12;;;;;;;20.09;72.02;100897.16;1724147;83;28029;-81
2022/07/05 05:50:21;;;;;;;2.62;1.65;;;;;;;20.13;71.22;100894.25;1723834;83;26658;-81
2022/07/05 05:52:48;;;;;;;3.05;1.80;;;;;;;20.19;70.64;100896.55;1722609;83;26391;-81
2022/07/05 05:55:15;;;;;;;4.50;1.50;;;;;;;20.25;71.27;100900.49;1723465;81;25769;-81
2022/07/05 05:57:42;;;;;;;2.77;1.42;;;;;;;20.35;70.94;100910.23;1723574;83;25568;-81
2022/07/05 06:00:10;;;;;;;1.62;1.45;;;;;;;20.43;69.17;100915.80;1723869;83;27507;-80
2022/07/05 06:02:40;;;;;;;1.45;1.10;;;;;;;20.51;70.26;100917.59;1723932;83;25818;-81
2022/07/05 06:05:08;;;;;;;3.98;1.42;;;;;;;20.60;68.96;100914.78;1723561;81;25482;-80
2022/07/05 06:07:54;;;;;;;1.45;1.35;;;;;;;20.74;70.00;100915.31;1723808;83;26587;-80
2022/07/05 06:10:27;;;;;;;2.47;1.20;;;;;;;20.85;68.15;100912.22;1723417;83;25787;-80
2022/07/05 06:12:57;;;;;;;2.98;1.22;;;;;;;20.90;66.91;100910.93;1720560;83;28289;-81
2022/07/05 06:15:24;;;;;;;2.33;1.07;;;;;;;20.90;66.64;100914.48;1720750;81;26567;-81
2022/07/05 06:17:51;;;;;;;2.95;1.12;;;;;;;20.92;64.10;100908.25;1723682;83;25836;-81
2022/07/05 06:20:20;;;;;;;1.35;1.15;;;;;;;20.92;63.56;100900.61;1723800;83;26182;-81
2022/07/05 06:22:48;;;;;;;1.27;1.10;;;;;;;20.98;64.36;100909.19;1723511;83;25275;-80
2022/07/05 06:25:14;;;;;;;1.82;1.05;;;;;;;21.03;63.69;100903.30;1723606;81;27450;-81
2022/07/05 06:27:44;;;;;;;2.30;1.20;;;;;;;21.13;63.96;100894.45;1723918;83;25762;-80
2022/07/05 06:30:15;;;;;;;2.00;1.27;;;;;;;21.21;63.34;100896.22;1723263;83;26432;-80
2022/07/05 06:32:47;;;;;;;4.28;1.30;;;;;;;21.26;63.31;100903.65;1723379;83;25800;-80
2022/07/05 06:35:14;;;;;;;1.22;1.10;;;;;;;21.26;63.87;100903.12;1723568;81;25854;-80
2022/07/05 06:37:53;;;;;;;1.60;1.10;;;;;;;21.31;63.21;100916.00;1723804;83;27444;-80
2022/07/05 06:40:25;;;;;;;1.80;1.20;;;;;;;21.28;63.23;100910.50;1721965;83;25258;-80
2022/07/05 06:42:54;;;;;;;1.45;1.07;;;;;;;21.28;63.51;100915.12;1723456;83;25821;-81
2022/07/05 06:45:24;;;;;;;1.65;0.95;;;;;;;21.31;63.95;100907.82;1723557;81;25777;-80
2022/07/05 06:48:09;;;;;;;1.30;1.20;;;;;;;21.42;63.90;100906.91;1723694;83;25557;-80
2022/07/05 06:50:39;;;;;;;5.03;1.45;;;;;;;21.54;65.22;100913.06;1723477;83;27459;-81
2022/07/05 06:53:07;;;;;;;2.87;1.10;;;;;;;21.68;65.71;100914.38;1722997;81;25849;-80
2022/07/05 06:55:33;;;;;;;1.65;1.22;;;;;;;21.80;64.66;100916.44;1723453;81;25740;-81
2022/07/05 06:58:05;;;;;;;2.10;1.42;;;;;;;21.91;64.96;100926.97;1723579;83;26501;-81
2022/07/05 07:00:32;;;;;;;1.62;1.20;;;;;;;21.99;63.59;100930.08;1723276;83;25791;-81
2022/07/05 07:02:58;;;;;;;2.92;1.27;;;;;;;22.08;64.86;100928.56;1723383;83;27452;-81
2022/07/05 07:05:26;;;;;;;1.30;1.10;;;;;;;22.17;64.22;100923.48;1723311;81;25884;-81
2022/07/05 07:10:37;;;;;;;1.90;1.12;;;;;;;22.20;62.39;100928.41;1723444;83;25786;-80
2022/07/05 07:13:05;;;;;;;3.37;1.27;;;;;;;22.17;63.11;100925.69;1723599;83;26635;-80
2022/07/05 07:15:33;;;;;;;2.22;1.27;;;;;;;22.20;62.39;100938.80;1723337;81;27455;-81
2022/07/05 07:18:00;;;;;;;4.53;1.30;;;;;;;22.26;62.53;100932.88;1723355;83;25828;-81
2022/07/05 07:20:27;;;;;;;1.90;1.02;;;;;;;22.32;62.60;100934.58;1723672;83;25707;-81
2022/07/05 07:22:54;;;;;;;4.20;1.25;;;;;;;22.41;63.35;100926.20;1717459;83;26570;-81
2022/07/05 07:25:23;;;;;;;1.30;1.20;;;;;;;22.53;62.46;100920.60;1723842;81;25721;-81
2022/07/05 07:27:55;;;;;;;1.57;1.05;;;;;;;22.60;62.23;100920.73;1723100;83;27530;-81
2022/07/05 07:30:27;;;;;;;1.42;1.22;;;;;;;22.70;62.27;100917.25;1723074;83;25939;-81
2022/07/05 07:32:54;;;;;;;2.77;1.17;;;;;;;22.81;62.24;100919.84;1723108;83;25909;-82
2022/07/05 07:35:21;;;;;;;1.82;1.17;;;;;;;22.91;60.33;100922.65;1723226;81;26000;-82
2022/07/05 07:37:48;;;;;;;1.67;1.27;;;;;;;22.89;59.25;100914.42;1716892;83;26609;-81
2022/07/05 07:40:15;;;;;;;2.50;1.30;;;;;;;22.85;59.55;100916.03;1719527;83;27450;-81
2022/07/05 07:42:41;;;;;;;1.82;1.40;;;;;;;22.82;60.21;100925.56;1722565;81;26101;-81
2022/07/05 07:45:08;;;;;;;3.67;1.32;;;;;;;22.83;60.27;100927.77;1723460;81;25297;-81
2022/07/05 07:47:36;;;;;;;1.52;1.40;;;;;;;22.87;59.63;100932.45;1723905;83;25764;-81
2022/07/05 07:50:05;;;;;;;1.57;1.45;;;;;;;22.88;59.17;100935.45;1723744;83;25840;-81
2022/07/05 07:52:33;;;;;;;2.65;1.00;;;;;;;22.95;60.45;100938.80;1723765;83;27468;-82
2022/07/05 07:55:01;;;;;;;2.47;1.47;;;;;;;22.99;60.05;100934.46;1723605;81;25794;-82
2022/07/05 07:57:28;;;;;;;1.57;1.37;;;;;;;23.06;59.63;100931.52;1723517;83;25281;-81
2022/07/05 07:59:54;;;;;;;3.72;1.47;;;;;;;23.06;59.06;100923.85;1723659;83;25922;-81
2022/07/05 08:02:22;;;;;;;1.77;1.17;;;;;;;23.07;59.95;100926.34;1723671;83;25911;-81
2022/07/05 08:04:50;;;;;;;1.75;1.20;;;;;;;23.16;60.12;100926.69;1723770;81;27489;-81
2022/07/05 08:07:18;;;;;;;1.45;1.25;;;;;;;23.24;60.81;100922.92;1723746;83;25882;-82
2022/07/05 08:09:45;;;;;;;2.35;1.20;;;;;;;23.25;58.44;100928.66;1723626;83;25296;-81
2022/07/05 08:12:11;;;;;;;1.95;1.17;;;;;;;23.23;59.51;100919.90;1701004;83;26363;-81
2022/07/05 08:14:37;;;;;;;2.08;1.27;;;;;;;23.27;58.88;100916.09;1720342;81;25737;-81
2022/07/05 08:17:08;;;;;;;3.22;1.45;;;;;;;23.32;60.00;100925.70;1724050;83;27357;-81
2022/07/05 08:22:17;;;;;;;2.98;1.32;;;;;;;23.41;59.08;100917.33;1722951;83;25727;-81
2022/07/05 08:24:44;;;;;;;3.05;1.37;;;;;;;23.34;57.65;100919.45;1723429;81;26606;-81
2022/07/05 08:27:11;;;;;;;1.87;1.50;;;;;;;23.27;58.37;100925.66;1723733;83;25877;-81
2022/07/05 08:29:38;;;;;;;1.52;1.30;;;;;;;23.23;58.93;100926.73;1723552;83;27456;-81
2022/07/05 08:32:06;;;;;;;2.83;1.47;;;;;;;23.21;59.43;100928.91;1723187;81;25600;-81
2022/07/05 08:34:33;;;;;;;1.92;1.10;;;;;;;23.21;59.17;100933.54;1723408;81;25761;-81
2022/07/05 08:37:00;;;;;;;2.12;1.20;;;;;;;23.22;60.49;100927.00;1719515;83;26515;-80
2022/07/05 08:39:27;;;;;;;2.25;1.07;;;;;;;23.21;60.28;100922.61;1723487;83;25737;-81
2022/07/05 08:41:55;;;;;;;1.50;1.20;;;;;;;23.17;60.22;100923.69;1723069;83;27461;-80
2022/07/05 08:44:22;;;;;;;3.05;1.60;;;;;;;23.17;60.40;100921.48;1723478;81;25746;-81
2022/07/05 08:46:52;;;;;;;5.85;1.17;;;;;;;23.26;60.93;100920.75;1723743;83;25704;-81
2022/07/05 08:49:27;;;;;;;4.00;1.27;;;;;;;23.35;60.35;100915.66;1723396;83;25858;-82
2022/07/05 08:51:55;;;;;;;4.37;1.75;;;;;;;23.39;60.33;100919.50;1723396;83;25753;-81
2022/07/05 08:54:24;;;;;;;2.35;1.10;;;;;;;23.48;60.92;100927.50;1723155;81;28176;-80
2022/07/05 08:56:51;;;;;;;3.47;1.30;;;;;;;23.56;60.55;100929.20;1723319;83;25761;-81
2022/07/05 08:59:18;;;;;;;4.15;1.45;;;;;;;23.67;61.22;100926.78;1723489;83;25866;-81
2022/07/05 09:01:47;;;;;;;1.62;1.32;;;;;;;23.77;59.89;100930.12;1723266;83;25930;-81
2022/07/05 09:04:14;;;;;;;2.67;1.40;;;;;;;23.80;59.10;100929.61;1723637;83;25766;-81
2022/07/05 09:06:41;;;;;;;4.25;1.67;;;;;;;23.87;60.34;100926.61;1723403;81;27444;-81
2022/07/05 09:09:10;;;;;;;3.05;1.98;;;;;;;23.93;59.37;100931.04;1723427;83;25698;-81
2022/07/05 09:11:41;;;;;;;1.60;1.30;;;;;;;23.92;58.91;100922.00;1723597;83;25744;-82
2022/07/05 09:14:18;;;;;;;3.50;1.70;;;;;;;23.85;58.00;100921.41;1720238;83;26587;-82
2022/07/05 09:16:44;;;;;;;2.87;1.50;;;;;;;23.76;57.89;100919.72;1723236;81;25744;-81
2022/07/05 09:19:11;;;;;;;2.05;1.30;;;;;;;23.72;58.66;100911.77;1723661;81;27444;-80
2022/07/05 09:21:37;;;;;;;2.37;1.40;;;;;;;23.78;59.40;100917.54;1723131;83;25814;-81
2022/07/05 09:24:10;;;;;;;6.35;1.77;;;;;;;23.88;59.15;100925.53;1723078;83;25724;-80
2022/07/05 09:26:43;;;;;;;3.42;1.47;;;;;;;23.97;59.57;100919.30;1723157;81;26559;-81
2022/07/05 09:29:13;;;;;;;1.47;1.37;;;;;;;24.16;58.50;100920.50;1723242;83;25948;-80
2022/07/05 09:31:42;;;;;;;1.30;1.20;;;;;;;24.36;59.81;100923.28;1723251;83;27438;-80
2022/07/05 09:34:16;;;;;;;5.23;1.70;;;;;;;24.53;59.63;100914.29;1720006;83;26541;-81
2022/07/05 09:37:03;;;;;;;2.92;1.60;;;;;;;24.60;58.55;100910.45;1721955;81;26500;-81
2022/07/05 09:39:36;;;;;;;2.87;1.52;;;;;;;24.56;58.17;100909.36;1723194;83;26586;-80
2022/07/05 09:42:12;;;;;;;2.33;1.47;;;;;;;24.57;57.41;100913.76;1723563;83;25729;-80
2022/07/05 09:44:44;;;;;;;2.47;2.00;;;;;;;24.55;57.58;100919.48;1722948;81;28270;-81
2022/07/05 09:47:13;;;;;;;2.77;1.40;;;;;;;24.59;58.13;100920.62;1720321;83;25623;-81
2022/07/05 09:49:48;;;;;;;3.08;1.40;;;;;;;24.73;59.79;100918.98;1723310;83;25765;-80
2022/07/05 09:52:36;;;;;;;3.90;2.42;;;;;;;24.81;58.26;100919.00;1722033;81;26534;-80
2022/07/05 09:55:09;;;;;;;2.60;1.60;;;;;;;24.76;57.47;100910.80;1721762;81;25937;-81
2022/07/05 09:57:40;;;;;;;3.75;1.95;;;;;;;24.74;57.06;100919.30;1720861;83;27425;-80
2022/07/05 10:00:15;;;;;;;3.80;1.55;;;;;;;24.71;57.55;100918.44;1700758;83;25851;-81
2022/07/05 10:02:49;;;;;;;2.40;1.70;;;;;;;24.65;57.03;100914.59;1723000;83;26120;-80
2022/07/05 10:05:18;;;;;;;4.45;1.82;;;;;;;24.63;57.34;100912.67;1720144;81;26579;-81
2022/07/05 10:07:50;;;;;;;2.67;1.50;;;;;;;24.61;57.29;100918.97;1722682;83;25352;-81
2022/07/05 10:10:19;;;;;;;1.95;1.50;;;;;;;24.62;57.91;100924.16;1720438;83;27964;-81
2022/07/05 10:12:48;;;;;;;2.83;1.80;;;;;;;24.57;57.43;100930.19;1722591;83;26789;-80
2022/07/05 10:15:20;;;;;;;3.17;1.98;;;;;;;24.51;57.61;100932.91;1723211;81;25741;-80
2022/07/05 10:18:00;;;;;;;2.60;1.80;;;;;;;24.49;57.58;100936.47;1722962;82;26499;-81
2022/07/05 10:20:40;;;;;;;3.00;1.60;;;;;;;24.41;56.54;100934.26;1722626;83;25983;-80
2022/07/05 10:23:14;;;;;;;4.72;1.70;;;;;;;24.31;57.13;100930.67;1722249;83;27493;-80
2022/07/05 10:25:47;;;;;;;2.08;1.50;;;;;;;24.18;56.85;100925.16;1722896;81;25751;-80
2022/07/05 10:28:14;;;;;;;3.27;1.80;;;;;;;24.01;57.00;100920.94;1718917;83;25737;-81
2022/07/05 10:30:41;;;;;;;2.02;1.70;;;;;;;23.94;57.64;100921.19;1723075;83;25770;-81
2022/07/05 10:33:08;;;;;;;2.20;1.80;;;;;;;23.89;58.35;100925.82;1722917;83;26551;-81
2022/07/05 10:35:35;;;;;;;3.77;1.65;;;;;;;23.86;58.30;100927.17;1723150;81;28252;-81
2022/07/05 10:38:02;;;;;;;3.87;1.72;;;;;;;23.84;58.74;100932.63;1722972;83;25770;-80
2022/07/05 10:40:32;;;;;;;2.37;1.72;;;;;;;23.84;58.63;100931.27;1723200;83;25830;-81
2022/07/05 10:43:01;;;;;;;5.80;1.60;;;;;;;23.82;58.48;100927.43;1723309;83;25795;-81
2022/07/05 10:45:36;;;;;;;2.90;1.90;;;;;;;23.76;58.40;100922.46;1723791;81;25820;-81
2022/07/05 10:48:25;;;;;;;3.05;1.95;;;;;;;23.71;59.21;100922.45;1721375;83;26911;-81
2022/07/05 10:50:54;;;;;;;2.33;1.50;;;;;;;23.69;59.26;100916.39;1701246;83;25845;-81
2022/07/05 10:53:37;;;;;;;5.03;1.67;;;;;;;23.65;59.25;100919.95;1723675;83;26347;-81
2022/07/05 10:56:09;;;;;;;4.08;1.45;;;;;;;23.57;59.34;100919.89;1720777;81;25836;-81
2022/07/05 10:58:46;;;;;;;2.25;1.70;;;;;;;23.51;60.04;100925.59;1721279;83;25792;-81
2022/07/05 11:01:24;;;;;;;3.08;1.62;;;;;;;23.45;60.30;100919.81;1699641;84;27443;-81
2022/07/05 11:03:57;;;;;;;2.55;1.35;;;;;;;23.36;60.18;100913.19;1723480;83;25281;-81
2022/07/05 11:06:41;;;;;;;3.52;2.02;;;;;;;23.31;60.63;100918.61;1693666;82;25380;-80
2022/07/05 11:09:16;;;;;;;2.98;1.52;;;;;;;23.25;60.88;100921.83;1714621;83;25754;-80
2022/07/05 11:11:47;;;;;;;4.97;1.80;;;;;;;23.20;61.34;100927.81;1715954;83;25933;-81
2022/07/05 11:14:26;;;;;;;6.58;1.70;;;;;;;23.16;61.55;100929.42;1715989;83;27452;-80
2022/07/05 11:17:19;;;;;;;5.42;1.60;;;;;;;23.11;61.80;100927.47;1716027;83;26628;-81
2022/07/05 11:20:19;;;;;;;6.85;1.87;;;;;;;23.09;62.02;100921.98;1675663;85;25850;-80
2022/07/05 11:23:11;;;;;;;3.62;1.57;;;;;;;23.06;62.25;100921.12;1713600;83;26575;-80
2022/07/05 11:25:44;;;;;;;7.05;2.08;;;;;;;23.04;63.16;100922.75;1716055;82;25417;-80
2022/07/05 11:28:22;;;;;;;5.28;2.05;;;;;;;23.03;63.00;100926.59;1696082;83;27544;-81
2022/07/05 11:30:59;;;;;;;5.53;1.82;;;;;;;23.05;63.19;100918.13;1677873;84;25904;-80
2022/07/05 11:33:38;;;;;;;3.60;1.75;;;;;;;23.00;63.04;100924.36;1716120;83;26677;-81
2022/07/05 11:36:22;;;;;;;4.90;1.42;;;;;;;22.95;63.36;100922.41;1716166;82;26616;-81
2022/07/05 11:39:16;;;;;;;1.95;1.75;;;;;;;22.94;63.58;100915.84;1716346;83;25855;-79